Time,TemperatureF,DewpointF,PressureIn,WindDirection,WindDirectionDegrees,WindSpeedMPH,WindSpeedGustMPH,Humidity,HourlyPrecipIn,Conditions,Clouds,dailyrainin,SoftwareType,DateUTC
2013-01-27 00:09:00,25.0,23.0,30.52,NNW,348,3.0,5.0,93,0.00,,,0.00,weatherlink.com 1.10,2013-01-27 05:09:00,
2013-01-27 00:24:00,25.4,23.0,30.52,NNW,348,3.0,4.0,92,0.00,,,0.00,weatherlink.com 1.10,2013-01-27 05:24:00,
2013-01-27 00:39:00,25.9,24.0,30.52,NNW,348,3.0,4.0,92,0.00,,,0.00,weatherlink.com 1.10,2013-01-27 05:39:00,
2013-01-27 00:54:00,26.3,24.0,30.52,NNW,348,3.0,4.0,92,0.00,,,0.00,weatherlink.com 1.10,2013-01-27 05:54:00,
2013-01-27 01:09:00,24.6,23.0,30.52,NNW,348,3.0,4.0,92,0.00,,,0.00,weatherlink.com 1.10,2013-01-27 06:09:00,
2013-01-27 01:24:00,23.6,22.0,30.52,NNW,348,5.0,5.0,92,0.00,,,0.00,weatherlink.com 1.10,2013-01-27 06:24:00,
2013-01-27 01:39:00,24.5,23.0,30.53,NNW,348,3.0,4.0,93,0.00,,,0.00,weatherlink.com 1.10,2013-01-27 06:39:00,
2013-01-27 01:54:00,25.3,24.0,30.54,NNW,348,3.0,6.0,93,0.00,,,0.00,weatherlink.com 1.10,2013-01-27 06:54:00,
2013-01-27 02:09:00,26.1,24.0,30.54,NNW,348,1.0,4.0,93,0.00,,,0.00,weatherlink.com 1.10,2013-01-27 07:09:00,
2013-01-27 02:24:00,27.4,25.0,30.55,NNW,348,0.0,3.0,90,0.00,,,0.00,weatherlink.com 1.10,2013-01-27 07:24:00,
2013-01-27 02:39:00,28.2,24.0,30.55,NNW,348,0.0,1.0,85,0.00,,,0.00,weatherlink.com 1.10,2013-01-27 07:39:00,
2013-01-27 02:54:00,27.6,24.0,30.55,NNW,348,0.0,1.0,87,0.00,,,0.00,weatherlink.com 1.10,2013-01-27 07:54:00,
2013-01-27 03:09:00,27.2,24.0,30.55,NNW,348,0.0,1.0,87,0.00,,,0.00,weatherlink.com 1.10,2013-01-27 08:09:00,
2013-01-27 03:24:00,27.2,24.0,30.56,NNW,348,0.0,3.0,87,0.00,,,0.00,weatherlink.com 1.10,2013-01-27 08:24:00,
2013-01-27 03:39:00,27.2,24.0,30.55,NNW,348,0.0,2.0,86,0.00,,,0.00,weatherlink.com 1.10,2013-01-27 08:39:00,
2013-01-27 03:54:00,26.7,23.0,30.55,SE,146,3.0,4.0,87,0.00,,,0.00,weatherlink.com 1.10,2013-01-27 08:54:00,
2013-01-27 04:09:00,26.0,23.0,30.55,South,176,3.0,5.0,89,0.00,,,0.00,weatherlink.com 1.10,2013-01-27 09:09:00,
2013-01-27 04:24:00,25.6,23.0,30.54,SSE,161,2.0,4.0,90,0.00,,,0.00,weatherlink.com 1.10,2013-01-27 09:24:00,
2013-01-27 04:39:00,25.6,23.0,30.54,SSE,154,1.0,4.0,90,0.00,,,0.00,weatherlink.com 1.10,2013-01-27 09:39:00,
2013-01-27 04:54:00,25.5,23.0,30.55,SSE,154,0.0,1.0,90,0.00,,,0.00,weatherlink.com 1.10,2013-01-27 09:54:00,
2013-01-27 05:09:00,25.3,23.0,30.56,SSE,154,0.0,4.0,90,0.00,,,0.00,weatherlink.com 1.10,2013-01-27 10:09:00,
2013-01-27 05:24:00,24.6,22.0,30.55,SSE,154,1.0,3.0,91,0.00,,,0.00,weatherlink.com 1.10,2013-01-27 10:24:00,
2013-01-27 05:39:00,24.2,22.0,30.55,SSE,153,3.0,3.0,91,0.00,,,0.00,weatherlink.com 1.10,2013-01-27 10:39:00,
2013-01-27 05:54:00,23.6,21.0,30.56,South,179,2.0,6.0,91,0.00,,,0.00,weatherlink.com 1.10,2013-01-27 10:54:00,
2013-01-27 06:09:00,22.9,21.0,30.57,South,173,2.0,6.0,92,0.00,,,0.00,weatherlink.com 1.10,2013-01-27 11:09:00,
2013-01-27 06:24:00,22.7,21.0,30.57,South,176,3.0,6.0,93,0.00,,,0.00,weatherlink.com 1.10,2013-01-27 11:24:00,
2013-01-27 06:39:00,22.9,21.0,30.57,SSE,160,4.0,6.0,93,0.00,,,0.00,weatherlink.com 1.10,2013-01-27 11:39:00,
2013-01-27 06:54:00,23.2,22.0,30.59,SSE,165,3.0,7.0,93,0.00,,,0.00,weatherlink.com 1.10,2013-01-27 11:54:00,
2013-01-27 07:09:00,23.4,22.0,30.59,South,172,4.0,6.0,92,0.00,,,0.00,weatherlink.com 1.10,2013-01-27 12:09:00,
2013-01-27 07:24:00,23.4,22.0,30.60,South,180,5.0,5.0,92,0.00,,,0.00,weatherlink.com 1.10,2013-01-27 12:24:00,
2013-01-27 07:39:00,23.4,22.0,30.61,SSE,159,3.0,7.0,92,0.00,,,0.00,weatherlink.com 1.10,2013-01-27 12:39:00,
2013-01-27 07:54:00,23.4,22.0,30.61,SSE,156,5.0,7.0,92,0.00,,,0.00,weatherlink.com 1.10,2013-01-27 12:54:00,
2013-01-27 08:09:00,23.4,22.0,30.62,SSE,152,4.0,8.0,92,0.00,,,0.00,weatherlink.com 1.10,2013-01-27 13:09:00,
2013-01-27 08:24:00,23.2,21.0,30.63,South,174,4.0,8.0,92,0.00,,,0.00,weatherlink.com 1.10,2013-01-27 13:24:00,
2013-01-27 08:39:00,23.1,21.0,30.63,SSE,163,3.0,8.0,93,0.00,,,0.00,weatherlink.com 1.10,2013-01-27 13:39:00,
2013-01-27 08:54:00,23.2,22.0,30.64,SSE,151,5.0,10.0,93,0.00,,,0.00,weatherlink.com 1.10,2013-01-27 13:54:00,
2013-01-27 09:10:00,23.5,22.0,30.63,SSE,155,4.0,8.0,92,0.00,,,0.00,weatherlink.com 1.10,2013-01-27 14:10:00,
2013-01-27 09:25:00,23.7,22.0,30.64,ESE,122,3.0,9.0,93,0.00,,,0.00,weatherlink.com 1.10,2013-01-27 14:25:00,
2013-01-27 09:39:00,23.9,22.0,30.65,SSW,197,6.0,8.0,93,0.00,,,0.00,weatherlink.com 1.10,2013-01-27 14:39:00,
2013-01-27 09:54:00,24.2,23.0,30.65,SSE,167,4.0,10.0,93,0.00,,,0.00,weatherlink.com 1.10,2013-01-27 14:54:00,
2013-01-27 10:10:00,24.7,23.0,30.65,SSE,155,4.0,12.0,93,0.00,,,0.00,weatherlink.com 1.10,2013-01-27 15:10:00,
2013-01-27 10:24:00,25.1,23.0,30.66,SSE,167,4.0,7.0,93,0.00,,,0.00,weatherlink.com 1.10,2013-01-27 15:24:00,
2013-01-27 10:40:00,25.2,24.0,30.67,South,185,8.0,10.0,93,0.00,,,0.00,weatherlink.com 1.10,2013-01-27 15:40:00,
2013-01-27 10:55:00,25.1,23.0,30.67,SSE,150,3.0,9.0,93,0.00,,,0.00,weatherlink.com 1.10,2013-01-27 15:55:00,
2013-01-27 11:10:00,25.1,23.0,30.67,South,181,4.0,10.0,93,0.00,,,0.00,weatherlink.com 1.10,2013-01-27 16:10:00,
2013-01-27 11:25:00,25.6,24.0,30.68,SE,144,2.0,7.0,93,0.00,,,0.00,weatherlink.com 1.10,2013-01-27 16:25:00,
2013-01-27 11:40:00,25.7,24.0,30.67,SSE,168,3.0,8.0,93,0.00,,,0.00,weatherlink.com 1.10,2013-01-27 16:40:00,
2013-01-27 11:55:00,25.7,24.0,30.66,South,180,3.0,11.0,93,0.00,,,0.00,weatherlink.com 1.10,2013-01-27 16:55:00,
2013-01-27 12:10:00,26.3,25.0,30.66,SSE,165,6.0,9.0,93,0.00,,,0.00,weatherlink.com 1.10,2013-01-27 17:10:00,
2013-01-27 12:25:00,26.1,24.0,30.67,SSE,159,6.0,9.0,93,0.00,,,0.00,weatherlink.com 1.10,2013-01-27 17:25:00,
2013-01-27 12:40:00,26.2,25.0,30.65,SSE,150,3.0,10.0,93,0.00,,,0.00,weatherlink.com 1.10,2013-01-27 17:40:00,
2013-01-27 12:55:00,26.6,25.0,30.66,ESE,123,1.0,13.0,93,0.00,,,0.00,weatherlink.com 1.10,2013-01-27 17:55:00,
2013-01-27 13:10:00,27.2,26.0,30.65,ESE,119,7.0,8.0,93,0.00,,,0.00,weatherlink.com 1.10,2013-01-27 18:10:00,
2013-01-27 13:25:00,27.6,26.0,30.64,SSE,165,4.0,9.0,93,0.00,,,0.00,weatherlink.com 1.10,2013-01-27 18:25:00,
2013-01-27 13:40:00,28.4,26.0,30.63,SE,140,5.0,9.0,92,0.00,,,0.00,weatherlink.com 1.10,2013-01-27 18:40:00,
2013-01-27 13:55:00,29.8,27.0,30.64,SSE,163,7.0,11.0,89,0.00,,,0.00,weatherlink.com 1.10,2013-01-27 18:55:00,
2013-01-27 14:11:00,29.8,26.0,30.64,SSE,148,4.0,12.0,84,0.00,,,0.00,weatherlink.com 1.10,2013-01-27 19:11:00,
2013-01-27 14:25:00,30.6,26.0,30.62,South,181,5.0,15.0,84,0.00,,,0.00,weatherlink.com 1.10,2013-01-27 19:25:00,
2013-01-27 14:40:00,32.1,27.0,30.63,SSE,157,4.0,9.0,80,0.00,,,0.00,weatherlink.com 1.10,2013-01-27 19:40:00,
2013-01-27 14:55:00,30.7,26.0,30.63,SSE,161,0.0,9.0,82,0.00,,,0.00,weatherlink.com 1.10,2013-01-27 19:55:00,
2013-01-27 15:11:00,30.3,26.0,30.63,SSE,163,4.0,8.0,83,0.00,,,0.00,weatherlink.com 1.10,2013-01-27 20:11:00,
2013-01-27 15:25:00,30.2,26.0,30.63,South,183,5.0,10.0,84,0.00,,,0.00,weatherlink.com 1.10,2013-01-27 20:25:00,
2013-01-27 15:41:00,29.7,25.0,30.64,SE,126,5.0,8.0,84,0.00,,,0.00,weatherlink.com 1.10,2013-01-27 20:41:00,
2013-01-27 15:55:00,29.7,25.0,30.64,SSE,158,4.0,9.0,84,0.00,,,0.00,weatherlink.com 1.10,2013-01-27 20:55:00,
2013-01-27 16:11:00,29.6,26.0,30.64,SSE,164,3.0,7.0,86,0.00,,,0.00,weatherlink.com 1.10,2013-01-27 21:11:00,
2013-01-27 16:26:00,29.4,26.0,30.63,SE,131,5.0,7.0,85,0.00,,,0.00,weatherlink.com 1.10,2013-01-27 21:26:00,
2013-01-27 16:41:00,29.5,26.0,30.64,SSE,155,3.0,5.0,86,0.00,,,0.00,weatherlink.com 1.10,2013-01-27 21:41:00,
2013-01-27 16:56:00,29.6,26.0,30.64,South,169,3.0,6.0,86,0.00,,,0.00,weatherlink.com 1.10,2013-01-27 21:56:00,
2013-01-27 17:11:00,29.3,26.0,30.65,South,173,5.0,9.0,86,0.00,,,0.00,weatherlink.com 1.10,2013-01-27 22:11:00,
2013-01-27 17:26:00,29.1,26.0,30.64,South,171,4.0,8.0,87,0.00,,,0.00,weatherlink.com 1.10,2013-01-27 22:26:00,
2013-01-27 17:41:00,28.8,25.0,30.65,SSE,156,2.0,7.0,87,0.00,,,0.00,weatherlink.com 1.10,2013-01-27 22:41:00,
2013-01-27 17:56:00,28.8,26.0,30.65,SSE,155,4.0,6.0,88,0.00,,,0.00,weatherlink.com 1.10,2013-01-27 22:56:00,
2013-01-27 18:11:00,28.8,25.0,30.65,South,175,5.0,6.0,87,0.00,,,0.00,weatherlink.com 1.10,2013-01-27 23:11:00,
2013-01-27 18:26:00,28.7,26.0,30.65,SE,142,6.0,6.0,88,0.00,,,0.00,weatherlink.com 1.10,2013-01-27 23:26:00,
2013-01-27 18:41:00,28.6,26.0,30.65,South,188,6.0,9.0,88,0.00,,,0.00,weatherlink.com 1.10,2013-01-27 23:41:00,
2013-01-27 18:56:00,28.4,25.0,30.65,SSE,161,5.0,9.0,88,0.00,,,0.00,weatherlink.com 1.10,2013-01-27 23:56:00,
2013-01-27 19:10:00,28.4,25.0,30.65,South,172,7.0,11.0,88,0.00,,,0.00,weatherlink.com 1.10,2013-01-28 00:10:00,
2013-01-27 19:25:00,28.3,25.0,30.65,SSW,195,7.0,10.0,88,0.00,,,0.00,weatherlink.com 1.10,2013-01-28 00:25:00,
2013-01-27 19:40:00,28.2,25.0,30.66,SSE,167,4.0,12.0,88,0.00,,,0.00,weatherlink.com 1.10,2013-01-28 00:40:00,
2013-01-27 19:55:00,28.0,25.0,30.65,South,173,6.0,11.0,89,0.00,,,0.00,weatherlink.com 1.10,2013-01-28 00:55:00,
2013-01-27 20:10:00,28.0,25.0,30.65,SSW,200,9.0,11.0,89,0.00,,,0.00,weatherlink.com 1.10,2013-01-28 01:10:00,
2013-01-27 20:25:00,28.2,25.0,30.65,SSE,167,3.0,10.0,89,0.00,,,0.00,weatherlink.com 1.10,2013-01-28 01:25:00,
2013-01-27 20:40:00,28.2,25.0,30.65,South,173,4.0,11.0,89,0.00,,,0.00,weatherlink.com 1.10,2013-01-28 01:40:00,
2013-01-27 20:55:00,28.1,25.0,30.66,SSE,161,3.0,9.0,89,0.00,,,0.00,weatherlink.com 1.10,2013-01-28 01:55:00,
2013-01-27 21:10:00,28.3,26.0,30.66,ESE,120,7.0,10.0,89,0.00,,,0.00,weatherlink.com 1.10,2013-01-28 02:10:00,
2013-01-27 21:25:00,28.2,25.0,30.64,SSE,160,2.0,8.0,89,0.00,,,0.00,weatherlink.com 1.10,2013-01-28 02:25:00,
2013-01-27 21:40:00,28.6,26.0,30.64,South,180,6.0,13.0,88,0.00,,,0.00,weatherlink.com 1.10,2013-01-28 02:40:00,
2013-01-27 21:55:00,28.6,26.0,30.63,South,180,8.0,12.0,89,0.00,,,0.00,weatherlink.com 1.10,2013-01-28 02:55:00,
2013-01-27 22:11:00,28.6,26.0,30.63,SSE,157,5.0,10.0,89,0.00,,,0.00,weatherlink.com 1.10,2013-01-28 03:11:00,
2013-01-27 22:26:00,28.5,26.0,30.62,SE,140,9.0,11.0,90,0.00,,,0.00,weatherlink.com 1.10,2013-01-28 03:26:00,
2013-01-27 22:41:00,28.6,26.0,30.62,SSE,166,4.0,11.0,90,0.00,,,0.00,weatherlink.com 1.10,2013-01-28 03:41:00,
2013-01-27 22:56:00,28.7,26.0,30.63,SE,133,6.0,11.0,91,0.00,,,0.00,weatherlink.com 1.10,2013-01-28 03:56:00,
2013-01-27 23:11:00,28.9,27.0,30.62,SSE,165,8.0,13.0,92,0.00,,,0.00,weatherlink.com 1.10,2013-01-28 04:11:00,
2013-01-27 23:26:00,28.5,27.0,30.62,SSE,164,5.0,11.0,92,0.00,,,0.00,weatherlink.com 1.10,2013-01-28 04:26:00,
2013-01-27 23:41:00,28.6,27.0,30.61,SSE,151,8.0,11.0,92,0.00,,,0.00,weatherlink.com 1.10,2013-01-28 04:41:00,
2013-01-27 23:56:00,28.5,27.0,30.61,SSE,167,5.0,13.0,92,0.00,,,0.00,weatherlink.com 1.10,2013-01-28 04:56:00,